createdAt,value
2022-11-16T00:01:23.574Z,98551.84
2022-11-16T00:03:59.372Z,98549.53
2022-11-16T00:06:36.447Z,98552.16
2022-11-16T00:09:23.299Z,98556.75
2022-11-16T00:11:59.930Z,98555.44
2022-11-16T00:14:34.231Z,98558.41
2022-11-16T00:17:05.936Z,98542.31
2022-11-16T00:19:37.593Z,98548.22
2022-11-16T00:22:10.449Z,98540.03
2022-11-16T00:24:46.937Z,98539.69
2022-11-16T00:27:18.582Z,98539.69
2022-11-16T00:29:50.208Z,98542.00
2022-11-16T00:32:21.878Z,98538.38
2022-11-16T00:34:53.456Z,98545.09
2022-11-16T00:37:29.039Z,98536.41
2022-11-16T00:40:03.601Z,98527.38
2022-11-16T00:42:37.427Z,98516.88
2022-11-16T00:45:10.059Z,98517.56
2022-11-16T00:47:42.154Z,98509.19
2022-11-16T00:50:13.823Z,98502.94
2022-11-16T00:52:47.635Z,98501.81
2022-11-16T00:55:24.866Z,98510.66
2022-11-16T00:58:00.389Z,98515.28
2022-11-16T01:00:32.263Z,98505.56
2022-11-16T01:03:04.306Z,98507.88
2022-11-16T01:05:36.214Z,98502.63
2022-11-16T01:08:08.054Z,98500.00
2022-11-16T01:10:45.003Z,98491.47
2022-11-16T01:13:19.494Z,98490.47
2022-11-16T01:15:53.514Z,98484.56
2022-11-16T01:18:25.164Z,98485.75
2022-11-16T01:20:57.146Z,98489.03
2022-11-16T01:23:28.803Z,98485.56
2022-11-16T01:26:03.381Z,98480.16
2022-11-16T01:28:38.724Z,98481.31
2022-11-16T01:31:12.026Z,98475.91
2022-11-16T01:33:44.577Z,98468.03
2022-11-16T01:36:33.223Z,98473.13
2022-11-16T01:39:06.639Z,98467.88
2022-11-16T01:41:49.978Z,98467.56
2022-11-16T01:44:55.184Z,98463.09
2022-11-16T01:47:27.441Z,98458.34
2022-11-16T01:50:07.262Z,98452.47
2022-11-16T01:52:47.697Z,98451.97
2022-11-16T01:55:21.120Z,98455.56
2022-11-16T01:58:10.660Z,98446.56
2022-11-16T02:00:45.092Z,98442.28
2022-11-16T02:03:37.902Z,98445.59
2022-11-16T02:06:16.180Z,98445.22
2022-11-16T02:09:55.603Z,98445.06
2022-11-16T02:12:44.424Z,98433.94
2022-11-16T02:15:43.840Z,98426.41
2022-11-16T02:18:58.691Z,98424.59
2022-11-16T02:21:45.145Z,98416.09
2022-11-16T02:25:00.362Z,98415.44
2022-11-16T02:28:15.625Z,98416.56
2022-11-16T02:30:53.296Z,98415.75
2022-11-16T02:33:34.817Z,98410.16
2022-11-16T02:36:13.268Z,98405.13
2022-11-16T02:38:54.878Z,98406.09
2022-11-16T02:41:31.464Z,98401.50
2022-11-16T02:44:10.127Z,98399.03
2022-11-16T02:46:45.745Z,98397.91
2022-11-16T02:49:19.875Z,98390.84
2022-11-16T02:51:54.162Z,98397.41
2022-11-16T02:54:28.044Z,98393.78
2022-11-16T02:57:04.415Z,98394.09
2022-11-16T02:59:46.545Z,98388.88
2022-11-16T03:02:30.146Z,98382.34
2022-11-16T03:05:41.172Z,98375.59
2022-11-16T03:08:40.924Z,98376.91
2022-11-16T03:11:33.564Z,98375.09
2022-11-16T03:14:09.634Z,98369.34
2022-11-16T03:16:49.603Z,98370.16
2022-11-16T03:19:32.617Z,98364.56
2022-11-16T03:22:14.663Z,98352.47
2022-11-16T03:24:48.391Z,98354.94
2022-11-16T03:28:04.709Z,98361.63
2022-11-16T03:31:09.714Z,98358.03
2022-11-16T03:34:03.332Z,98354.13
2022-11-16T03:36:39.003Z,98351.66
2022-11-16T03:39:21.940Z,98356.84
2022-11-16T03:41:54.660Z,98348.16
2022-11-16T03:44:27.889Z,98344.34
2022-11-16T03:46:59.567Z,98334.53
2022-11-16T03:49:31.484Z,98332.38
2022-11-16T03:52:04.194Z,98330.56
2022-11-16T03:54:38.276Z,98330.41
2022-11-16T03:57:15.580Z,98327.63
2022-11-16T03:59:53.202Z,98330.53
2022-11-16T04:02:25.183Z,98327.41
2022-11-16T04:05:26.622Z,98334.13
2022-11-16T04:08:16.714Z,98330.69
2022-11-16T04:11:07.217Z,98333.97
2022-11-16T04:13:57.753Z,98325.75
2022-11-16T04:16:48.026Z,98329.50
2022-11-16T04:19:38.360Z,98326.41
2022-11-16T04:22:39.895Z,98325.44
2022-11-16T04:25:23.740Z,98317.72
2022-11-16T04:28:15.376Z,98318.38
2022-11-16T04:31:16.880Z,98321.16
2022-11-16T04:34:13.001Z,98315.63
2022-11-16T04:37:08.806Z,98317.25
2022-11-16T04:39:40.623Z,98315.63
2022-11-16T04:42:20.189Z,98313.97
2022-11-16T04:45:13.740Z,98308.06
2022-11-16T04:47:51.918Z,98304.31
2022-11-16T04:50:25.388Z,98301.50
2022-11-16T04:52:57.388Z,98295.16
2022-11-16T04:55:29.012Z,98284.81
2022-11-16T04:58:01.475Z,98291.84
2022-11-16T05:00:33.189Z,98301.22
2022-11-16T05:03:06.118Z,98297.91
2022-11-16T05:05:38.272Z,98296.56
2022-11-16T05:08:10.486Z,98299.84
2022-11-16T05:10:42.900Z,98295.38
2022-11-16T05:13:14.821Z,98287.50
2022-11-16T05:15:46.750Z,98287.84
2022-11-16T05:18:20.693Z,98292.91
2022-11-16T05:21:01.711Z,98291.63
2022-11-16T05:23:57.107Z,98285.94
2022-11-16T05:26:33.499Z,98288.03
2022-11-16T05:29:07.205Z,98291.00
2022-11-16T05:31:41.893Z,98289.00
2022-11-16T05:34:14.289Z,98286.06
2022-11-16T05:36:45.965Z,98285.38
2022-11-16T05:39:19.339Z,98289.28
2022-11-16T05:41:52.445Z,98284.53
2022-11-16T05:44:28.116Z,98284.53
2022-11-16T05:47:01.124Z,98279.28
2022-11-16T05:49:39.365Z,98280.06
2022-11-16T05:52:10.990Z,98289.13
2022-11-16T05:54:44.187Z,98289.00
2022-11-16T05:57:17.457Z,98290.81
2022-11-16T05:59:49.413Z,98282.84
2022-11-16T06:02:26.319Z,98291.84
2022-11-16T06:04:57.960Z,98296.28
2022-11-16T06:07:34.363Z,98302.88
2022-11-16T06:10:09.382Z,98301.22
2022-11-16T06:12:44.730Z,98298.09
2022-11-16T06:15:16.475Z,98311.34
2022-11-16T06:17:48.303Z,98310.00
2022-11-16T06:20:21.276Z,98317.22
2022-11-16T06:22:53.175Z,98315.06
2022-11-16T06:25:30.855Z,98313.59
2022-11-16T06:28:07.544Z,98315.78
2022-11-16T06:30:41.082Z,98316.13
2022-11-16T06:33:14.319Z,98307.59
2022-11-16T06:35:46.121Z,98310.88
2022-11-16T06:38:25.866Z,98302.81
2022-11-16T06:40:59.570Z,98304.97
2022-11-16T06:43:34.022Z,98305.94
2022-11-16T06:46:06.787Z,98298.91
2022-11-16T06:48:41.191Z,98304.03
2022-11-16T06:51:17.094Z,98295.81
2022-11-16T06:53:48.749Z,98302.03
2022-11-16T06:56:20.717Z,98298.53
2022-11-16T06:58:57.399Z,98298.84
2022-11-16T07:01:32.108Z,98296.88
2022-11-16T07:04:15.959Z,98306.69
2022-11-16T07:06:54.573Z,98299.63
2022-11-16T07:09:26.363Z,98299.28
2022-11-16T07:11:58.149Z,98293.34
2022-11-16T07:14:29.916Z,98299.38
2022-11-16T07:17:08.040Z,98294.78
2022-11-16T07:19:43.942Z,98293.41
2022-11-16T07:22:15.701Z,98291.91
2022-11-16T07:24:50.983Z,98284.31
2022-11-16T07:27:24.713Z,98285.59
2022-11-16T07:29:57.433Z,98286.41
2022-11-16T07:33:02.734Z,98296.59
2022-11-16T07:36:24.288Z,98295.28
2022-11-16T07:39:02.109Z,98295.94
2022-11-16T07:41:38.521Z,98289.34
2022-11-16T07:44:20.306Z,98278.81
2022-11-16T07:47:10.273Z,98284.91
2022-11-16T07:49:44.485Z,98286.53
2022-11-16T07:52:23.166Z,98294.09
2022-11-16T07:55:01.847Z,98297.88
2022-11-16T07:57:35.140Z,98299.97
2022-11-16T08:00:11.931Z,98292.63
2022-11-16T08:02:51.136Z,98298.00
2022-11-16T08:05:25.120Z,98307.34
2022-11-16T08:07:56.776Z,98297.28
2022-11-16T08:10:31.228Z,98294.66
2022-11-16T08:13:04.788Z,98292.38
2022-11-16T08:15:39.475Z,98293.06
2022-11-16T08:18:13.993Z,98284.72
2022-11-16T08:20:46.127Z,98286.78
2022-11-16T08:23:44.930Z,98283.47
2022-11-16T08:26:22.090Z,98286.00
2022-11-16T08:29:01.674Z,98290.56
2022-11-16T08:31:38.196Z,98289.41
2022-11-16T08:34:16.470Z,98292.84
2022-11-16T08:36:53.143Z,98285.13
2022-11-16T08:39:30.694Z,98286.50
2022-11-16T08:42:03.677Z,98285.03
2022-11-16T08:44:35.372Z,98283.22
2022-11-16T08:47:11.121Z,98284.19
2022-11-16T08:49:49.664Z,98279.31
2022-11-16T08:52:25.739Z,98280.47
2022-11-16T08:54:59.193Z,98288.34
2022-11-16T08:57:30.838Z,98285.72
2022-11-16T09:00:07.148Z,98282.56
2022-11-16T09:02:39.102Z,98277.63
2022-11-16T09:05:36.162Z,98274.63
2022-11-16T09:08:07.773Z,98278.06
2022-11-16T09:10:39.392Z,98276.09
2022-11-16T09:13:13.373Z,98277.91
2022-11-16T09:15:45.494Z,98274.75
2022-11-16T09:18:17.518Z,98276.22
2022-11-16T09:20:52.227Z,98281.75
2022-11-16T09:23:25.506Z,98277.78
2022-11-16T09:26:01.504Z,98270.72
2022-11-16T09:28:34.122Z,98268.53
2022-11-16T09:31:10.149Z,98277.72
2022-11-16T09:33:48.956Z,98265.03
2022-11-16T09:36:21.365Z,98275.97
2022-11-16T09:39:19.413Z,98271.38
2022-11-16T09:42:27.538Z,98276.47
2022-11-16T09:45:15.047Z,98273.28
2022-11-16T09:47:57.611Z,98275.56
2022-11-16T09:50:45.844Z,98274.28
2022-11-16T09:53:56.001Z,98280.03
2022-11-16T09:56:31.188Z,98271.94
2022-11-16T09:59:13.569Z,98269.13
2022-11-16T10:02:19.481Z,98274.03
2022-11-16T10:05:03.058Z,98272.03
2022-11-16T10:07:48.550Z,98279.75
2022-11-16T10:10:28.937Z,98269.50
2022-11-16T10:13:11.300Z,98273.59
2022-11-16T10:16:00.723Z,98265.78
2022-11-16T10:18:49.541Z,98262.22
2022-11-16T10:21:24.091Z,98260.53
2022-11-16T10:24:29.660Z,98254.38
2022-11-16T10:27:29.666Z,98253.06
2022-11-16T10:30:11.877Z,98247.31
2022-11-16T10:33:02.828Z,98239.13
2022-11-16T10:35:48.704Z,98232.63
2022-11-16T10:38:30.968Z,98229.25
2022-11-16T10:41:24.457Z,98221.47
2022-11-16T10:43:59.503Z,98227.81
2022-11-16T10:46:33.656Z,98218.72
2022-11-16T10:49:30.343Z,98222.44
2022-11-16T10:52:02.533Z,98211.53
2022-11-16T10:54:34.162Z,98207.47
2022-11-16T10:57:17.913Z,98202.28
2022-11-16T10:59:55.459Z,98202.97
2022-11-16T11:02:34.953Z,98203.06
2022-11-16T11:05:22.444Z,98196.03
2022-11-16T11:08:10.273Z,98197.69
2022-11-16T11:10:42.724Z,98190.13
2022-11-16T11:13:14.304Z,98196.03
2022-11-16T11:15:47.567Z,98197.47
2022-11-16T11:18:31.648Z,98190.22
2022-11-16T11:21:07.651Z,98189.22
2022-11-16T11:23:46.791Z,98197.44
2022-11-16T11:26:40.179Z,98183.81
2022-11-16T11:29:20.996Z,98186.25
2022-11-16T11:31:57.695Z,98176.97
2022-11-16T11:34:39.803Z,98173.09
2022-11-16T11:37:34.031Z,98182.97
2022-11-16T11:40:26.834Z,98185.63
2022-11-16T11:43:02.695Z,98182.81
2022-11-16T11:46:00.846Z,98178.59
2022-11-16T11:48:42.226Z,98173.03
2022-11-16T11:51:24.710Z,98167.19
2022-11-16T11:53:58.654Z,98169.22
2022-11-16T11:56:32.352Z,98165.16
2022-11-16T11:59:04.791Z,98160.97
2022-11-16T12:01:48.324Z,98164.47
2022-11-16T12:04:54.873Z,98153.69
2022-11-16T12:08:21.370Z,98155.59
2022-11-16T12:11:01.126Z,98156.59
2022-11-16T12:13:33.056Z,98153.88
2022-11-16T12:16:07.999Z,98150.97
2022-11-16T12:19:02.694Z,98159.31
2022-11-16T12:21:39.353Z,98149.00
2022-11-16T12:24:42.028Z,98149.97
2022-11-16T12:27:32.104Z,98152.97
2022-11-16T12:30:11.492Z,98146.19
2022-11-16T12:33:10.858Z,98140.53
2022-11-16T12:36:03.967Z,98140.38
2022-11-16T12:38:51.970Z,98145.44
2022-11-16T12:41:31.523Z,98135.63
2022-11-16T12:44:10.878Z,98132.72
2022-11-16T12:47:05.980Z,98131.66
2022-11-16T12:50:00.410Z,98135.72
2022-11-16T12:53:03.829Z,98131.91
2022-11-16T12:56:02.618Z,98139.06
2022-11-16T12:58:39.901Z,98138.13
2022-11-16T13:01:25.098Z,98143.22
2022-11-16T13:04:05.632Z,98135.31
2022-11-16T13:06:43.851Z,98139.88
2022-11-16T13:09:27.642Z,98129.56
2022-11-16T13:12:05.158Z,98144.25
2022-11-16T13:14:46.700Z,98138.00
2022-11-16T13:17:28.450Z,98139.91
2022-11-16T13:20:14.951Z,98138.81
2022-11-16T13:23:15.753Z,98131.47
2022-11-16T13:26:15.261Z,98137.28
2022-11-16T13:29:15.264Z,98130.63
2022-11-16T13:32:02.168Z,98129.84
2022-11-16T13:34:37.687Z,98126.19
2022-11-16T13:37:38.179Z,98118.41
2022-11-16T13:40:20.257Z,98126.31
2022-11-16T13:43:17.950Z,98121.38
2022-11-16T13:45:57.737Z,98125.19
2022-11-16T13:48:34.852Z,98127.00
2022-11-16T13:51:16.571Z,98121.03
2022-11-16T13:56:51.323Z,98121.13
2022-11-16T13:59:30.364Z,98117.50
2022-11-16T14:02:23.360Z,98119.72
2022-11-16T14:05:02.040Z,98120.44
2022-11-16T14:07:35.737Z,98117.16
2022-11-16T14:10:07.946Z,98115.34
2022-11-16T14:12:51.560Z,98117.06
2022-11-16T14:15:36.808Z,98117.69
2022-11-16T14:18:09.212Z,98115.97
2022-11-16T14:21:20.616Z,98104.19
2022-11-16T14:24:16.799Z,98104.09
2022-11-16T14:27:06.838Z,98104.09
2022-11-16T14:30:11.150Z,98091.97
2022-11-16T14:32:57.319Z,98093.69
2022-11-16T14:35:36.455Z,98094.41
2022-11-16T14:38:26.682Z,98098.84
2022-11-16T14:41:00.226Z,98090.22
2022-11-16T14:43:40.693Z,98092.59
2022-11-16T14:46:36.143Z,98084.13
2022-11-16T14:49:12.213Z,98082.59
2022-11-16T14:51:47.579Z,98084.66
2022-11-16T14:54:46.028Z,98084.91
2022-11-16T14:57:20.030Z,98078.16
2022-11-16T15:00:19.123Z,98080.69
2022-11-16T15:02:55.380Z,98070.91
2022-11-16T15:05:35.383Z,98077.06
2022-11-16T15:08:17.601Z,98087.16
2022-11-16T15:10:52.928Z,98090.50
2022-11-16T15:13:27.435Z,98082.47
2022-11-16T15:16:16.350Z,98083.06
2022-11-16T15:18:59.536Z,98076.00
2022-11-16T15:21:31.141Z,98073.53
2022-11-16T15:27:20.352Z,98065.22
2022-11-16T15:29:52.156Z,98068.41
2022-11-16T15:32:23.844Z,98066.69
2022-11-16T15:34:55.547Z,98066.69
2022-11-16T15:37:31.065Z,98061.41
2022-11-16T15:40:03.441Z,98063.41
2022-11-16T15:42:37.145Z,98059.44
2022-11-16T15:45:24.173Z,98063.50
2022-11-16T15:47:58.860Z,98054.28
2022-11-16T15:50:31.065Z,98052.63
2022-11-16T15:53:02.706Z,98055.09
2022-11-16T15:55:40.962Z,98053.53
2022-11-16T15:58:18.832Z,98045.91
2022-11-16T16:00:50.492Z,98059.22
2022-11-16T16:03:27.830Z,98050.16
2022-11-16T16:05:59.466Z,98056.22
2022-11-16T16:08:38.687Z,98049.53
2022-11-16T16:11:16.038Z,98045.66
2022-11-16T16:14:02.421Z,98048.19
2022-11-16T16:16:38.256Z,98043.09
2022-11-16T16:19:36.621Z,98046.72
2022-11-16T16:22:27.812Z,98044.28
2022-11-16T16:25:00.653Z,98050.56
2022-11-16T16:27:38.831Z,98048.09
2022-11-16T16:30:14.524Z,98045.47
2022-11-16T16:32:51.873Z,98044.66
2022-11-16T16:35:25.217Z,98048.91
2022-11-16T16:38:01.260Z,98048.75
2022-11-16T16:40:32.902Z,98045.91
2022-11-16T16:43:04.499Z,98049.09
2022-11-16T16:45:43.077Z,98053.28
2022-11-16T16:48:15.059Z,98053.28
2022-11-16T16:50:46.684Z,98048.00
2022-11-16T16:53:18.546Z,98045.81
2022-11-16T16:55:54.029Z,98040.41
2022-11-16T16:58:25.712Z,98044.66
2022-11-16T17:01:01.355Z,98041.66
2022-11-16T17:03:33.507Z,98045.75
2022-11-16T17:06:05.801Z,98043.94
2022-11-16T17:08:37.617Z,98034.97
2022-11-16T17:11:10.025Z,98036.34
2022-11-16T17:13:42.016Z,98032.06
2022-11-16T17:16:13.674Z,98029.78
2022-11-16T17:18:47.390Z,98035.53
2022-11-16T17:21:19.031Z,98029.06
2022-11-16T17:23:50.696Z,98026.09
2022-11-16T17:26:22.394Z,98026.16
2022-11-16T17:28:58.005Z,98022.34
2022-11-16T17:31:29.662Z,98022.81
2022-11-16T17:34:01.340Z,98028.50
2022-11-16T17:36:32.961Z,98029.22
2022-11-16T17:39:04.720Z,98024.31
2022-11-16T17:41:36.922Z,98026.16
2022-11-16T17:44:09.319Z,98031.59
2022-11-16T17:46:40.969Z,98027.16
2022-11-16T17:49:12.623Z,98017.09
2022-11-16T17:51:44.408Z,98030.22
2022-11-16T17:54:16.040Z,98016.81
2022-11-16T17:56:47.809Z,98015.38
2022-11-16T17:59:19.426Z,98023.72
2022-11-16T18:01:51.357Z,98012.63
2022-11-16T18:04:23.630Z,98015.28
2022-11-16T18:06:56.089Z,98012.00
2022-11-16T18:09:27.822Z,98010.75
2022-11-16T18:12:00.008Z,98009.50
2022-11-16T18:14:33.023Z,98017.47
2022-11-16T18:17:04.666Z,98007.03
2022-11-16T18:19:36.282Z,98013.72
2022-11-16T18:22:10.922Z,98017.81
2022-11-16T18:24:42.599Z,98013.16
2022-11-16T18:27:15.447Z,98018.88
2022-11-16T18:29:47.959Z,98017.50
2022-11-16T18:32:21.224Z,98017.31
2022-11-16T18:34:53.272Z,98014.50
2022-11-16T18:37:24.882Z,98006.41
2022-11-16T18:39:56.509Z,98008.69
2022-11-16T18:42:28.139Z,98009.69
2022-11-16T18:44:59.817Z,97999.97
2022-11-16T18:47:34.411Z,98007.31
2022-11-16T18:50:16.388Z,98007.13
2022-11-16T18:52:50.789Z,98002.03
2022-11-16T18:55:22.421Z,98001.88
2022-11-16T18:57:54.051Z,97998.25
2022-11-16T19:00:25.668Z,98000.25
2022-11-16T19:02:57.315Z,97994.16
2022-11-16T19:05:28.967Z,97987.25
2022-11-16T19:08:03.232Z,97996.97
2022-11-16T19:10:38.799Z,97981.00
2022-11-16T19:13:13.169Z,97970.88
2022-11-16T19:15:44.959Z,97973.88
2022-11-16T19:18:21.027Z,97981.31
2022-11-16T19:21:06.662Z,97978.88
2022-11-16T19:23:44.704Z,97995.66
2022-11-16T19:26:18.378Z,97991.59
2022-11-16T19:28:51.187Z,97992.50
2022-11-16T19:31:26.278Z,97990.44
2022-11-16T19:34:00.987Z,97993.25
2022-11-16T19:36:33.679Z,97995.88
2022-11-16T19:39:05.885Z,97984.28
2022-11-16T19:41:37.583Z,97984.03
2022-11-16T19:44:09.365Z,97983.94
2022-11-16T19:46:41.118Z,97983.31
2022-11-16T19:49:19.724Z,97993.47
2022-11-16T19:51:52.100Z,97986.56
2022-11-16T19:54:23.658Z,97984.75
2022-11-16T19:56:55.497Z,97996.09
2022-11-16T19:59:27.120Z,97995.47
2022-11-16T20:01:58.821Z,97997.69
2022-11-16T20:04:34.235Z,98001.69
2022-11-16T20:07:08.503Z,97990.63
2022-11-16T20:09:40.244Z,97990.53
2022-11-16T20:12:11.875Z,97988.97
2022-11-16T20:14:43.613Z,97987.91
2022-11-16T20:17:15.525Z,97988.09
2022-11-16T20:19:47.448Z,97998.16
2022-11-16T20:22:19.093Z,97994.72
2022-11-16T20:24:50.790Z,97986.00
2022-11-16T20:27:22.781Z,97981.94
2022-11-16T20:29:54.361Z,97986.41
2022-11-16T20:32:25.976Z,97991.84
2022-11-16T20:35:00.557Z,97985.38
2022-11-16T20:37:34.228Z,97987.41
2022-11-16T20:40:06.498Z,97980.13
2022-11-16T20:42:38.137Z,97975.31
2022-11-16T20:45:10.429Z,97969.69
2022-11-16T20:47:42.474Z,97975.75
2022-11-16T20:50:14.335Z,97970.50
2022-11-16T20:52:49.950Z,97978.03
2022-11-16T20:55:24.255Z,97968.13
2022-11-16T20:57:55.896Z,97976.28
2022-11-16T21:00:27.549Z,97972.03
2022-11-16T21:02:59.220Z,97969.84
2022-11-16T21:05:30.864Z,97964.41
2022-11-16T21:08:02.499Z,97965.84
2022-11-16T21:10:36.500Z,97954.31
2022-11-16T21:13:33.199Z,97947.88
2022-11-16T21:16:13.063Z,97943.44
2022-11-16T21:18:44.681Z,97950.88
2022-11-16T21:21:16.339Z,97960.56
2022-11-16T21:23:51.784Z,97958.16
2022-11-16T21:26:25.581Z,97964.19
2022-11-16T21:28:58.639Z,97954.31
2022-11-16T21:31:33.707Z,97961.84
2022-11-16T21:34:07.263Z,97959.41
2022-11-16T21:36:39.361Z,97958.94
2022-11-16T21:39:11.033Z,97964.00
2022-11-16T21:41:42.620Z,97964.28
2022-11-16T21:44:14.264Z,97963.91
2022-11-16T21:46:45.855Z,97963.91
2022-11-16T21:49:17.637Z,97962.91
2022-11-16T21:51:50.738Z,97967.19
2022-11-16T21:54:44.358Z,97969.00
2022-11-16T21:57:16.342Z,97969.81
2022-11-16T21:59:47.962Z,97974.03
2022-11-16T22:02:19.797Z,97972.63
2022-11-16T22:05:09.814Z,97971.81
2022-11-16T22:07:43.457Z,97980.13
2022-11-16T22:10:15.212Z,97977.31
2022-11-16T22:12:46.828Z,97978.31
2022-11-16T22:15:18.494Z,97976.59
2022-11-16T22:17:50.091Z,97968.72
2022-11-16T22:20:21.822Z,97977.72
2022-11-16T22:22:53.516Z,97966.56
2022-11-16T22:25:25.602Z,97969.19
2022-11-16T22:30:52.081Z,97971.41
2022-11-16T22:33:27.266Z,97962.34
2022-11-16T22:35:59.021Z,97971.47
2022-11-16T22:38:31.146Z,97967.84
2022-11-16T22:41:03.004Z,97969.91
2022-11-16T22:43:35.938Z,97966.09
2022-11-16T22:46:10.669Z,97966.09
2022-11-16T22:48:43.304Z,97961.47
2022-11-16T22:51:19.386Z,97962.91
2022-11-16T22:53:56.115Z,97969.34
2022-11-16T22:56:30.670Z,97968.47
2022-11-16T22:59:02.610Z,97960.78
2022-11-16T23:01:34.308Z,97963.41
2022-11-16T23:04:05.962Z,97960.22
2022-11-16T23:06:40.423Z,97960.47
2022-11-16T23:09:12.084Z,97959.91
2022-11-16T23:12:01.952Z,97956.91
2022-11-16T23:14:51.841Z,97960.97
2022-11-16T23:17:23.497Z,97959.16
2022-11-16T23:20:17.629Z,97953.25
2022-11-16T23:23:07.979Z,97961.34
2022-11-16T23:25:58.355Z,97961.97
2022-11-16T23:28:30.030Z,97947.63
2022-11-16T23:31:01.641Z,97950.09
2022-11-16T23:33:45.340Z,97951.06
2022-11-16T23:36:16.998Z,97949.63
2022-11-16T23:38:48.605Z,97947.38
2022-11-16T23:41:38.685Z,97945.75
2022-11-16T23:44:10.377Z,97951.81
2022-11-16T23:46:41.989Z,97941.88
2022-11-16T23:49:13.597Z,97935.00
2022-11-16T23:51:45.358Z,97935.81
2022-11-16T23:54:16.978Z,97926.28
2022-11-16T23:56:48.540Z,97921.03
2022-11-16T23:59:20.182Z,97924.47
